Time;durP1;ratioP1;P1;durP2;ratioP2;P2;SDS_P1;SDS_P2;PMS_P1;PMS_P2;Temp;Humidity;BMP_temperature;BMP_pressure;BME280_temperature;BME280_humidity;BME280_pressure;Samples;Min_cycle;Max_cycle;Signal;HPM_P1;HPM_P2
2021/12/30 00:00:38;;;;;;;33.45;6.20;;;8.00;99.90;;;;;;5087005;28;20473;-77
2021/12/30 00:03:05;;;;;;;33.00;5.45;;;8.10;99.90;;;;;;5087063;28;20757;-77
2021/12/30 00:05:31;;;;;;;35.95;6.50;;;8.10;99.90;;;;;;5068993;28;20402;-77
2021/12/30 00:07:57;;;;;;;34.85;6.28;;;8.10;99.90;;;;;;5069103;28;20410;-77
2021/12/30 00:10:23;;;;;;;33.53;6.37;;;8.00;99.90;;;;;;5052257;28;20413;-77
2021/12/30 00:12:50;;;;;;;33.75;6.85;;;8.00;99.90;;;;;;5068656;28;20401;-77
2021/12/30 00:15:16;;;;;;;36.70;6.53;;;8.00;99.90;;;;;;5069056;28;20990;-77
2021/12/30 00:17:42;;;;;;;33.93;6.03;;;8.00;99.90;;;;;;5064612;28;20506;-77
2021/12/30 00:20:08;;;;;;;33.87;6.10;;;7.90;99.90;;;;;;5048462;28;20448;-77
2021/12/30 00:22:35;;;;;;;29.08;6.00;;;7.90;99.90;;;;;;5032596;28;20426;-77
2021/12/30 00:25:01;;;;;;;35.83;6.63;;;7.80;99.90;;;;;;5049091;28;20407;-77
2021/12/30 00:27:26;;;;;;;36.20;6.28;;;7.80;99.90;;;;;;5032060;28;20917;-77
2021/12/30 00:29:52;;;;;;;32.43;6.43;;;7.70;99.90;;;;;;5049263;28;20403;-77
2021/12/30 00:32:18;;;;;;;32.25;6.43;;;7.60;99.90;;;;;;5049661;28;21396;-77
2021/12/30 00:34:43;;;;;;;30.33;5.90;;;7.60;99.90;;;;;;5067745;28;20406;-77
2021/12/30 00:37:09;;;;;;;41.20;6.93;;;7.60;99.90;;;;;;5049650;28;20527;-77
2021/12/30 00:39:35;;;;;;;38.70;7.15;;;7.60;99.90;;;;;;5051431;28;20450;-77
2021/12/30 00:42:00;;;;;;;39.27;6.57;;;7.60;99.90;;;;;;5053712;28;20410;-77
2021/12/30 00:44:26;;;;;;;36.75;6.85;;;7.60;99.90;;;;;;5053944;28;21149;-77
2021/12/30 00:46:52;;;;;;;36.00;6.55;;;7.60;99.90;;;;;;5052839;28;21025;-77
2021/12/30 00:49:18;;;;;;;36.80;6.32;;;7.60;99.90;;;;;;5053080;28;20406;-77
2021/12/30 00:51:43;;;;;;;37.10;6.40;;;7.60;99.90;;;;;;5052578;28;20491;-77
2021/12/30 00:54:09;;;;;;;38.30;6.25;;;7.60;99.90;;;;;;5052354;28;20400;-77
2021/12/30 00:56:35;;;;;;;39.35;7.03;;;7.50;99.90;;;;;;5035578;28;20427;-77
2021/12/30 00:59:00;;;;;;;40.60;6.87;;;7.50;99.90;;;;;;5052902;28;20407;-77
2021/12/30 01:01:26;;;;;;;44.58;7.45;;;7.50;99.90;;;;;;5053133;28;20523;-77
2021/12/30 01:03:52;;;;;;;35.72;7.35;;;7.40;99.90;;;;;;5053338;28;20407;-77
2021/12/30 01:06:18;;;;;;;39.45;7.13;;;7.50;99.90;;;;;;5036311;28;20404;-77
2021/12/30 01:08:44;;;;;;;45.37;8.00;;;7.50;99.90;;;;;;5036094;28;20415;-77
2021/12/30 01:11:11;;;;;;;49.20;8.70;;;7.50;99.90;;;;;;5052939;28;20473;-77
2021/12/30 01:13:40;;;;;;;49.83;8.73;;;7.50;99.90;;;;;;5053282;28;20487;-77
2021/12/30 01:16:16;;;;;;;42.10;8.40;;;7.60;99.90;;;;;;5052584;28;20565;-77
2021/12/30 01:18:56;;;;;;;48.10;8.60;;;7.60;99.90;;;;;;5082919;28;20390;-77
2021/12/30 01:21:25;;;;;;;44.45;8.57;;;7.60;99.90;;;;;;5073055;28;20760;-77
2021/12/30 01:23:51;;;;;;;54.83;10.10;;;7.60;99.90;;;;;;5072771;28;20475;-77
2021/12/30 01:26:17;;;;;;;45.83;9.40;;;7.50;99.90;;;;;;5090512;28;20406;-76
2021/12/30 01:28:43;;;;;;;50.17;9.40;;;7.50;99.90;;;;;;5073224;28;20413;-77
2021/12/30 01:31:09;;;;;;;52.83;9.57;;;7.50;99.90;;;;;;5072229;28;20922;-77
2021/12/30 01:33:38;;;;;;;51.80;9.88;;;7.50;99.90;;;;;;5090816;28;20406;-77
2021/12/30 01:36:04;;;;;;;51.53;10.38;;;7.40;99.90;;;;;;5072388;28;20428;-77
2021/12/30 01:38:29;;;;;;;54.15;9.45;;;7.40;99.90;;;;;;5090797;28;21205;-77
2021/12/30 01:40:57;;;;;;;53.17;9.52;;;7.40;99.90;;;;;;5072413;28;20482;-77
2021/12/30 01:43:23;;;;;;;56.70;10.23;;;7.40;99.90;;;;;;5090553;28;20402;-77
2021/12/30 01:45:50;;;;;;;55.20;10.07;;;7.40;99.90;;;;;;5090723;28;20398;-77
2021/12/30 01:48:16;;;;;;;65.57;10.55;;;7.30;99.90;;;;;;5072480;28;20406;-77
2021/12/30 01:50:44;;;;;;;62.03;10.88;;;7.30;99.90;;;;;;5090310;28;20410;-77
2021/12/30 01:53:10;;;;;;;54.55;9.77;;;7.20;99.90;;;;;;5090121;28;20952;-77
2021/12/30 01:55:37;;;;;;;59.25;11.10;;;7.20;99.90;;;;;;5055649;28;20437;-77
2021/12/30 01:58:04;;;;;;;55.53;10.00;;;7.20;99.90;;;;;;5055579;28;20493;-77
2021/12/30 02:00:31;;;;;;;71.75;11.90;;;7.20;99.90;;;;;;5072084;28;20438;-77
2021/12/30 02:02:58;;;;;;;74.90;11.35;;;7.20;99.90;;;;;;5071656;28;20402;-77
2021/12/30 02:05:24;;;;;;;69.82;10.98;;;7.30;99.90;;;;;;5072238;28;20768;-77
2021/12/30 02:07:50;;;;;;;65.28;10.43;;;7.30;99.90;;;;;;5055057;28;20413;-77
2021/12/30 02:10:15;;;;;;;73.18;11.25;;;7.20;99.90;;;;;;5055134;28;20406;-77
2021/12/30 02:12:42;;;;;;;67.53;11.18;;;7.20;99.90;;;;;;5089961;28;20398;-77
2021/12/30 02:15:11;;;;;;;68.18;10.57;;;7.20;99.90;;;;;;5071507;28;20401;-77
2021/12/30 02:17:37;;;;;;;64.22;10.98;;;7.10;99.90;;;;;;5086137;28;20428;-77
2021/12/30 02:20:06;;;;;;;67.93;11.15;;;7.10;99.90;;;;;;5051757;28;20966;-77
2021/12/30 02:22:32;;;;;;;68.28;10.43;;;7.10;99.90;;;;;;5034954;28;20408;-77
2021/12/30 02:24:59;;;;;;;64.37;10.67;;;7.10;99.90;;;;;;5051466;28;20487;-77
2021/12/30 02:27:26;;;;;;;61.63;10.05;;;7.00;99.90;;;;;;5069293;28;20510;-77
2021/12/30 02:29:52;;;;;;;59.67;10.10;;;7.00;99.90;;;;;;5051364;28;20473;-77
2021/12/30 02:32:21;;;;;;;75.85;11.02;;;7.00;99.90;;;;;;5051282;28;20411;-77
2021/12/30 02:34:48;;;;;;;58.58;10.43;;;7.00;99.90;;;;;;5069304;28;20459;-77
2021/12/30 02:37:18;;;;;;;68.40;10.55;;;7.00;99.90;;;;;;5069200;28;20428;-77
2021/12/30 02:39:48;;;;;;;72.30;11.18;;;7.00;99.90;;;;;;5051498;28;20448;-77
2021/12/30 02:42:14;;;;;;;56.88;10.75;;;6.90;99.90;;;;;;5050973;28;20418;-77
2021/12/30 02:44:40;;;;;;;60.28;10.65;;;6.90;99.90;;;;;;5051238;28;20412;-77
2021/12/30 02:47:05;;;;;;;66.07;10.85;;;6.90;99.90;;;;;;5069082;28;20430;-77
2021/12/30 02:49:31;;;;;;;71.57;10.75;;;6.90;99.90;;;;;;5068474;28;20407;-77
2021/12/30 02:51:57;;;;;;;62.77;11.57;;;6.90;99.90;;;;;;5033894;28;20415;-77
2021/12/30 02:54:23;;;;;;;61.03;11.07;;;6.90;99.90;;;;;;5067700;28;20408;-77
2021/12/30 02:56:48;;;;;;;61.17;10.93;;;6.90;99.90;;;;;;5067849;28;20423;-77
2021/12/30 02:59:16;;;;;;;64.13;10.70;;;6.80;99.90;;;;;;5050099;28;20443;-77
2021/12/30 03:01:42;;;;;;;72.88;11.90;;;6.80;99.90;;;;;;5067574;28;20592;-77
2021/12/30 03:04:07;;;;;;;78.72;12.18;;;6.80;99.90;;;;;;5067769;28;20823;-77
2021/12/30 03:06:34;;;;;;;67.53;11.18;;;6.80;99.90;;;;;;5067171;28;20490;-77
2021/12/30 03:09:00;;;;;;;77.35;11.75;;;6.70;99.90;;;;;;5067679;28;20415;-77
2021/12/30 03:11:27;;;;;;;67.53;11.48;;;6.70;99.90;;;;;;5050006;28;20415;-77
2021/12/30 03:13:54;;;;;;;70.13;11.82;;;6.70;99.90;;;;;;5067595;28;20404;-77
2021/12/30 03:16:23;;;;;;;69.65;11.90;;;6.70;99.90;;;;;;5067465;28;20434;-77
2021/12/30 03:18:50;;;;;;;72.65;12.23;;;6.60;99.90;;;;;;5081396;28;20935;-77
2021/12/30 03:21:19;;;;;;;68.80;12.40;;;6.70;99.90;;;;;;5087005;28;20398;-77
2021/12/30 03:23:45;;;;;;;65.22;11.77;;;6.70;99.90;;;;;;5069671;28;20410;-77
2021/12/30 03:26:12;;;;;;;67.47;11.63;;;6.80;99.90;;;;;;5069810;28;20398;-77
2021/12/30 03:28:42;;;;;;;69.25;11.70;;;6.80;99.90;;;;;;5087328;28;20398;-77
2021/12/30 03:31:09;;;;;;;68.93;11.52;;;6.80;99.90;;;;;;5052707;28;20402;-77
2021/12/30 03:33:36;;;;;;;65.37;12.37;;;6.80;99.90;;;;;;5069563;28;20409;-77
2021/12/30 03:36:04;;;;;;;68.38;11.82;;;6.90;99.90;;;;;;5069704;28;20752;-77
2021/12/30 03:38:33;;;;;;;67.78;12.80;;;6.90;99.90;;;;;;5069262;28;20471;-77
2021/12/30 03:40:59;;;;;;;70.43;12.57;;;6.90;99.90;;;;;;5052336;28;20410;-77
2021/12/30 03:43:26;;;;;;;74.43;12.90;;;7.00;99.90;;;;;;5087596;28;20406;-77
2021/12/30 03:45:52;;;;;;;70.20;13.27;;;7.00;99.90;;;;;;5069476;28;20402;-77
2021/12/30 03:48:18;;;;;;;63.97;13.07;;;7.00;99.90;;;;;;5052651;28;20451;-77
2021/12/30 03:50:45;;;;;;;68.20;13.43;;;7.00;99.90;;;;;;5069220;28;20410;-77
2021/12/30 03:53:15;;;;;;;72.73;13.87;;;7.10;99.90;;;;;;5087087;28;20406;-77
2021/12/30 03:55:42;;;;;;;73.10;13.82;;;7.10;99.90;;;;;;5087600;28;20429;-77
2021/12/30 03:58:08;;;;;;;72.40;14.43;;;7.20;99.90;;;;;;5058854;28;20432;-77
2021/12/30 04:00:35;;;;;;;67.88;15.13;;;7.30;99.90;;;;;;5058876;28;20398;-77
2021/12/30 04:03:00;;;;;;;74.22;15.85;;;7.30;99.90;;;;;;5056237;28;20475;-77
2021/12/30 04:05:26;;;;;;;80.47;16.53;;;7.40;99.90;;;;;;5032665;28;20486;-77
2021/12/30 04:07:52;;;;;;;78.75;16.85;;;7.40;99.90;;;;;;5065905;28;20408;-77
2021/12/30 04:10:21;;;;;;;77.13;17.58;;;7.40;99.90;;;;;;5068570;28;20955;-77
2021/12/30 04:12:49;;;;;;;77.40;17.33;;;7.40;99.90;;;;;;5067853;28;20410;-77
2021/12/30 04:15:15;;;;;;;84.57;19.25;;;7.40;99.90;;;;;;5062676;28;20407;-77
2021/12/30 04:17:43;;;;;;;80.45;19.38;;;7.50;99.90;;;;;;5051597;28;20438;-77
2021/12/30 04:20:11;;;;;;;79.77;19.77;;;7.50;99.90;;;;;;5051898;28;21017;-77
2021/12/30 04:22:38;;;;;;;91.30;19.83;;;7.50;99.90;;;;;;5069540;28;20403;-77
2021/12/30 04:25:06;;;;;;;75.80;19.98;;;7.50;99.90;;;;;;5051461;28;20988;-77
2021/12/30 04:27:33;;;;;;;90.10;21.52;;;7.40;99.90;;;;;;5051360;28;20921;-77
2021/12/30 04:29:58;;;;;;;89.65;21.60;;;7.40;99.90;;;;;;5051339;28;20450;-77
2021/12/30 04:32:24;;;;;;;89.68;22.58;;;7.50;99.90;;;;;;5051447;28;20927;-77
2021/12/30 04:34:50;;;;;;;83.70;22.23;;;7.50;99.90;;;;;;5051519;28;20529;-77
2021/12/30 04:37:16;;;;;;;87.25;23.63;;;7.60;99.90;;;;;;5069222;28;20478;-77
2021/12/30 04:39:41;;;;;;;92.87;24.13;;;7.50;99.90;;;;;;5069559;28;20431;-77
2021/12/30 04:42:07;;;;;;;98.57;23.95;;;7.60;99.90;;;;;;5069038;28;20456;-77
2021/12/30 04:44:33;;;;;;;84.13;24.50;;;7.60;99.90;;;;;;5051161;28;20422;-77
2021/12/30 04:46:59;;;;;;;103.23;24.60;;;7.60;99.90;;;;;;5051453;28;20768;-77
2021/12/30 04:49:25;;;;;;;93.20;24.55;;;7.60;99.90;;;;;;5034468;28;20762;-77
2021/12/30 04:51:52;;;;;;;82.97;23.52;;;7.60;99.90;;;;;;5069084;28;20605;-77
2021/12/30 04:54:18;;;;;;;90.28;23.90;;;7.60;99.90;;;;;;5050839;28;20404;-77
2021/12/30 04:56:44;;;;;;;93.88;24.42;;;7.70;99.90;;;;;;5051566;28;20519;-77
2021/12/30 04:59:09;;;;;;;90.82;24.05;;;7.70;99.90;;;;;;5051949;28;20442;-77
2021/12/30 05:01:35;;;;;;;92.33;23.63;;;7.70;99.90;;;;;;5051708;28;20431;-77
2021/12/30 05:04:01;;;;;;;104.17;24.63;;;7.70;99.90;;;;;;5052082;28;20415;-77
2021/12/30 05:06:26;;;;;;;104.82;26.50;;;7.80;99.90;;;;;;5043524;28;20412;-77
2021/12/30 05:08:52;;;;;;;98.68;25.15;;;7.80;99.90;;;;;;5053831;28;1059002;-77
2021/12/30 05:11:18;;;;;;;111.17;25.80;;;7.80;99.90;;;;;;5072888;28;21078;-77
2021/12/30 05:13:43;;;;;;;97.95;25.70;;;7.70;99.90;;;;;;5091038;28;20417;-77
2021/12/30 05:16:09;;;;;;;92.77;24.53;;;7.70;99.90;;;;;;5072832;28;20461;-77
2021/12/30 05:18:36;;;;;;;96.90;25.40;;;7.70;99.90;;;;;;5073182;28;20437;-77
2021/12/30 05:21:05;;;;;;;96.57;25.08;;;7.80;99.90;;;;;;5073095;28;20402;-77
2021/12/30 05:23:32;;;;;;;101.45;25.67;;;7.80;99.90;;;;;;5090347;28;20401;-77
2021/12/30 05:25:58;;;;;;;99.45;26.23;;;7.80;99.90;;;;;;5090757;28;20405;-77
2021/12/30 05:28:24;;;;;;;93.68;26.33;;;7.80;99.90;;;;;;5090839;28;20390;-77
2021/12/30 05:30:50;;;;;;;99.85;27.27;;;7.90;99.90;;;;;;5090519;28;20402;-77
2021/12/30 05:33:16;;;;;;;96.88;26.63;;;8.00;99.90;;;;;;5090606;28;20424;-77
2021/12/30 05:35:41;;;;;;;94.47;25.98;;;8.10;99.90;;;;;;5091036;28;20398;-77
2021/12/30 05:38:08;;;;;;;97.83;26.63;;;8.10;99.90;;;;;;5090155;28;20475;-77
2021/12/30 05:40:34;;;;;;;93.17;26.07;;;8.20;99.90;;;;;;5090534;28;20437;-77
2021/12/30 05:43:00;;;;;;;98.53;26.55;;;8.30;99.90;;;;;;5072643;28;20405;-77
2021/12/30 05:45:26;;;;;;;88.82;26.13;;;8.40;99.90;;;;;;5090502;28;20981;-77
2021/12/30 05:47:53;;;;;;;101.30;26.95;;;8.50;99.90;;;;;;5090173;28;20409;-77
2021/12/30 05:50:21;;;;;;;106.43;27.33;;;8.50;99.90;;;;;;5090570;28;20749;-77
2021/12/30 05:52:47;;;;;;;104.93;27.08;;;8.50;99.90;;;;;;5055161;28;20448;-77
2021/12/30 05:55:14;;;;;;;93.55;25.70;;;8.60;99.90;;;;;;5089617;28;20394;-77
2021/12/30 05:57:41;;;;;;;105.80;29.25;;;8.60;99.90;;;;;;5090133;28;20923;-77
2021/12/30 06:00:10;;;;;;;113.33;29.63;;;8.70;99.90;;;;;;5089489;28;20394;-77
2021/12/30 06:02:36;;;;;;;103.45;29.02;;;8.70;99.90;;;;;;5071898;28;20402;-77
2021/12/30 06:05:02;;;;;;;108.43;31.13;;;8.80;99.90;;;;;;5089874;28;20484;-77
2021/12/30 06:07:28;;;;;;;100.90;31.67;;;8.80;99.90;;;;;;5054788;28;20836;-77
2021/12/30 06:09:54;;;;;;;122.83;33.80;;;8.90;99.90;;;;;;5051528;28;20416;-77
2021/12/30 06:12:19;;;;;;;121.93;35.27;;;9.00;99.90;;;;;;5051906;28;20762;-77
2021/12/30 06:14:45;;;;;;;125.57;36.25;;;9.00;99.90;;;;;;5069734;28;20411;-77
2021/12/30 06:17:13;;;;;;;131.00;36.70;;;9.10;99.90;;;;;;5051762;28;20507;-77
2021/12/30 06:19:39;;;;;;;123.93;37.33;;;9.10;99.90;;;;;;5051729;28;20549;-77
2021/12/30 06:22:05;;;;;;;138.68;38.63;;;9.20;99.90;;;;;;5033942;28;20490;-77
2021/12/30 06:24:31;;;;;;;132.07;37.95;;;9.20;99.90;;;;;;5050636;28;20439;-77
2021/12/30 06:26:57;;;;;;;139.47;38.40;;;9.20;99.90;;;;;;5050372;28;20829;-77
2021/12/30 06:29:22;;;;;;;142.23;39.17;;;9.30;99.90;;;;;;5067672;28;20518;-77
2021/12/30 06:31:48;;;;;;;119.80;37.10;;;9.30;99.90;;;;;;5050469;28;20762;-77
2021/12/30 06:34:14;;;;;;;130.07;38.07;;;9.40;99.90;;;;;;5068783;28;20391;-77
2021/12/30 06:36:40;;;;;;;135.77;38.53;;;9.40;99.90;;;;;;5050467;28;20464;-77
2021/12/30 06:39:06;;;;;;;110.90;34.78;;;9.40;99.90;;;;;;5050862;28;20411;-77
2021/12/30 06:41:32;;;;;;;113.38;35.83;;;9.40;99.90;;;;;;5051405;28;20407;-77
2021/12/30 06:43:58;;;;;;;106.68;35.38;;;9.40;99.90;;;;;;5068764;28;20404;-77
2021/12/30 06:46:24;;;;;;;106.07;33.00;;;9.50;99.90;;;;;;5034658;28;20906;-77
2021/12/30 06:48:50;;;;;;;89.40;30.67;;;9.50;99.90;;;;;;5051712;28;20418;-77
2021/12/30 06:51:21;;;;;;;81.68;29.90;;;9.50;99.90;;;;;;5051021;28;20472;-78
2021/12/30 06:53:47;;;;;;;73.53;27.88;;;9.50;99.90;;;;;;5051184;28;20411;-77
2021/12/30 06:56:13;;;;;;;79.82;27.35;;;9.60;99.90;;;;;;5068464;28;20423;-77
2021/12/30 06:58:39;;;;;;;68.85;26.33;;;9.60;99.90;;;;;;5068647;28;20415;-77
2021/12/30 07:01:05;;;;;;;70.65;25.77;;;9.70;99.90;;;;;;5068951;28;20769;-77
2021/12/30 07:03:30;;;;;;;69.50;24.97;;;9.80;99.90;;;;;;5051256;28;20757;-77
2021/12/30 07:05:56;;;;;;;72.82;25.30;;;9.80;99.90;;;;;;5054857;28;20410;-77
2021/12/30 07:08:23;;;;;;;77.60;25.83;;;9.80;99.90;;;;;;5070605;28;20418;-77
2021/12/30 07:10:50;;;;;;;79.78;24.83;;;9.80;99.90;;;;;;5070373;28;20466;-77
2021/12/30 07:13:15;;;;;;;73.65;24.08;;;9.90;99.90;;;;;;5070716;28;20406;-77
2021/12/30 07:15:41;;;;;;;66.90;22.50;;;9.90;99.90;;;;;;5071219;28;20756;-77
2021/12/30 07:18:06;;;;;;;79.27;24.77;;;9.90;99.90;;;;;;5069578;28;20430;-77
2021/12/30 07:20:32;;;;;;;76.22;24.40;;;10.00;99.90;;;;;;5057502;28;20402;-77
2021/12/30 07:22:58;;;;;;;73.47;24.43;;;10.00;99.90;;;;;;5058405;28;20908;-74
2021/12/30 07:25:24;;;;;;;72.30;24.42;;;10.00;99.90;;;;;;5070739;28;20819;-74
2021/12/30 07:27:52;;;;;;;70.28;23.67;;;10.10;99.90;;;;;;5062209;28;21117;-76
2021/12/30 07:30:20;;;;;;;72.40;24.30;;;10.10;99.90;;;;;;5058834;28;20402;-76
2021/12/30 07:32:46;;;;;;;70.28;24.38;;;10.10;99.90;;;;;;5059360;28;20411;-76
2021/12/30 07:35:14;;;;;;;76.88;24.92;;;10.10;99.90;;;;;;5069110;28;20475;-75
2021/12/30 07:37:39;;;;;;;90.00;26.20;;;10.10;99.90;;;;;;5088678;28;20768;-76
2021/12/30 07:40:06;;;;;;;88.53;26.67;;;10.10;99.90;;;;;;5070170;28;20406;-76
2021/12/30 07:42:31;;;;;;;76.37;24.10;;;10.20;99.90;;;;;;5068539;28;20408;-76
2021/12/30 07:44:57;;;;;;;74.78;23.90;;;10.20;99.90;;;;;;5062995;28;20416;-76
2021/12/30 07:47:22;;;;;;;77.20;24.30;;;10.20;99.90;;;;;;5050169;28;20408;-76
2021/12/30 07:49:48;;;;;;;62.92;22.63;;;10.20;99.90;;;;;;5050714;28;20507;-76
2021/12/30 07:52:15;;;;;;;69.37;22.67;;;10.20;99.90;;;;;;5051023;28;20977;-76
2021/12/30 07:54:40;;;;;;;63.58;22.05;;;10.30;99.90;;;;;;5050555;28;20944;-76
2021/12/30 07:57:06;;;;;;;65.43;22.25;;;10.30;99.90;;;;;;5070376;28;20427;-76
2021/12/30 07:59:32;;;;;;;77.93;23.40;;;10.30;99.90;;;;;;5068568;28;20931;-76
2021/12/30 08:01:58;;;;;;;64.30;21.95;;;10.40;99.90;;;;;;5069565;28;20398;-76
2021/12/30 08:04:24;;;;;;;69.43;22.08;;;10.40;99.90;;;;;;5050876;28;20401;-76
2021/12/30 08:06:49;;;;;;;75.85;23.02;;;10.40;99.90;;;;;;5058573;28;21090;-76
2021/12/30 08:09:15;;;;;;;69.23;22.63;;;10.40;99.90;;;;;;5061419;28;20432;-76
2021/12/30 08:11:40;;;;;;;87.50;25.58;;;10.50;99.90;;;;;;5070173;28;20440;-76
2021/12/30 08:14:06;;;;;;;97.40;25.30;;;10.50;99.90;;;;;;5062692;28;20406;-76
2021/12/30 08:16:32;;;;;;;66.03;21.50;;;10.50;99.90;;;;;;5068708;28;20480;-76
2021/12/30 08:18:58;;;;;;;79.35;23.70;;;10.50;99.90;;;;;;5060369;28;20933;-76
2021/12/30 08:21:24;;;;;;;80.97;22.92;;;10.50;99.90;;;;;;5066726;28;20469;-76
2021/12/30 08:23:51;;;;;;;78.65;22.63;;;10.60;99.90;;;;;;5058834;28;20420;-76
2021/12/30 08:26:18;;;;;;;88.00;23.17;;;10.60;99.90;;;;;;5069513;28;20494;-76
2021/12/30 08:28:44;;;;;;;74.65;21.45;;;10.60;99.90;;;;;;5058806;28;20963;-76
2021/12/30 08:31:10;;;;;;;65.33;20.37;;;10.60;99.90;;;;;;5052486;28;20461;-76
2021/12/30 08:33:35;;;;;;;67.50;20.70;;;10.60;99.90;;;;;;5067868;28;20399;-77
2021/12/30 08:36:01;;;;;;;65.20;20.30;;;10.60;99.90;;;;;;5049358;28;20464;-77
2021/12/30 08:38:27;;;;;;;53.97;19.27;;;10.70;99.90;;;;;;5072366;28;20505;-77
2021/12/30 08:40:52;;;;;;;48.53;17.50;;;10.70;99.90;;;;;;5033466;28;20475;-76
2021/12/30 08:43:18;;;;;;;40.57;16.43;;;10.70;99.90;;;;;;5067542;28;20395;-77
2021/12/30 08:45:45;;;;;;;43.73;17.00;;;10.70;99.90;;;;;;5049375;28;20494;-77
2021/12/30 08:48:11;;;;;;;39.80;16.50;;;10.80;99.90;;;;;;5049574;28;20416;-77
2021/12/30 08:50:36;;;;;;;32.28;13.88;;;10.80;99.90;;;;;;5049573;28;20420;-77
2021/12/30 08:53:02;;;;;;;28.67;13.80;;;10.80;99.90;;;;;;5078460;28;20414;-77
2021/12/30 08:55:28;;;;;;;32.67;14.20;;;10.80;99.90;;;;;;5068636;28;20407;-77
2021/12/30 08:57:54;;;;;;;20.38;10.85;;;10.80;99.90;;;;;;5051823;28;20802;-76
2021/12/30 09:00:24;;;;;;;23.58;12.00;;;10.80;99.90;;;;;;5071277;28;20903;-77
2021/12/30 09:02:51;;;;;;;14.52;8.63;;;10.90;99.90;;;;;;5073655;28;20540;-77
2021/12/30 09:05:17;;;;;;;12.60;8.10;;;10.90;99.90;;;;;;5058766;28;20454;-77
2021/12/30 09:07:43;;;;;;;13.57;7.77;;;10.80;99.90;;;;;;5069920;28;20787;-77
2021/12/30 09:10:11;;;;;;;12.30;7.43;;;10.90;99.90;;;;;;5070698;28;20416;-71
2021/12/30 09:12:38;;;;;;;11.73;7.47;;;10.90;99.90;;;;;;5052772;28;20442;-76
2021/12/30 09:15:05;;;;;;;9.85;6.13;;;10.90;99.90;;;;;;5052827;28;20404;-76
2021/12/30 09:17:31;;;;;;;9.45;6.20;;;10.90;99.90;;;;;;5046427;28;20536;-76
2021/12/30 09:19:57;;;;;;;10.60;6.93;;;11.10;99.90;;;;;;5056161;28;20417;-76
2021/12/30 09:22:23;;;;;;;12.70;8.00;;;11.10;99.90;;;;;;5073055;28;20406;-76
2021/12/30 09:24:49;;;;;;;11.93;8.23;;;11.20;99.90;;;;;;5065865;28;20421;-76
2021/12/30 09:27:15;;;;;;;15.17;9.40;;;11.20;99.90;;;;;;5054353;28;20940;-76
2021/12/30 09:29:41;;;;;;;14.52;8.70;;;11.20;99.90;;;;;;5071076;28;20834;-74
2021/12/30 09:32:06;;;;;;;17.00;9.60;;;11.30;99.90;;;;;;5069424;28;20408;-74
2021/12/30 09:34:32;;;;;;;17.60;10.75;;;11.30;99.90;;;;;;5069460;28;20486;-74
2021/12/30 09:36:57;;;;;;;16.00;9.48;;;11.40;99.90;;;;;;5071419;28;20434;-75
2021/12/30 09:39:23;;;;;;;15.47;9.60;;;11.40;99.90;;;;;;5071683;28;20406;-75
2021/12/30 09:41:49;;;;;;;17.20;8.68;;;11.40;99.90;;;;;;5071948;28;21157;-75
2021/12/30 09:44:17;;;;;;;13.80;8.33;;;11.40;99.90;;;;;;5071382;28;20405;-75
2021/12/30 09:46:45;;;;;;;16.35;8.30;;;11.40;99.90;;;;;;5054736;28;20414;-75
2021/12/30 09:49:14;;;;;;;12.48;7.05;;;11.50;99.90;;;;;;5071245;28;20467;-74
2021/12/30 09:51:42;;;;;;;14.10;8.30;;;11.50;99.90;;;;;;5071575;28;20761;-74
2021/12/30 09:54:08;;;;;;;14.30;8.57;;;11.50;99.90;;;;;;5067332;28;20415;-75
2021/12/30 09:56:33;;;;;;;16.65;8.73;;;11.50;99.90;;;;;;5068108;28;20434;-74
2021/12/30 09:58:59;;;;;;;18.95;10.68;;;11.50;99.90;;;;;;5067883;28;20403;-75
2021/12/30 10:01:25;;;;;;;19.97;10.67;;;11.50;99.90;;;;;;5069242;28;20494;-75
2021/12/30 10:03:56;;;;;;;18.87;10.40;;;11.50;99.90;;;;;;5051727;28;20405;-74
2021/12/30 10:06:21;;;;;;;17.50;9.75;;;11.60;99.90;;;;;;5053998;28;20402;-75
2021/12/30 10:08:57;;;;;;;22.23;11.67;;;11.50;99.90;;;;;;5070268;28;20406;-75
2021/12/30 10:11:23;;;;;;;22.02;10.63;;;11.50;99.90;;;;;;5067309;28;20935;-76
2021/12/30 10:13:51;;;;;;;20.42;10.82;;;11.50;99.90;;;;;;5072710;28;20403;-74
2021/12/30 10:16:18;;;;;;;21.23;10.90;;;11.50;99.90;;;;;;5050988;28;20458;-74
2021/12/30 10:18:55;;;;;;;20.95;11.90;;;11.50;99.90;;;;;;5050858;28;20403;-74
2021/12/30 10:21:22;;;;;;;21.55;12.23;;;11.50;99.90;;;;;;5034169;28;20415;-74
2021/12/30 10:23:51;;;;;;;24.45;13.10;;;11.50;99.90;;;;;;5051006;28;20948;-74
2021/12/30 10:26:17;;;;;;;24.17;12.38;;;11.60;99.90;;;;;;5034006;28;20407;-74
2021/12/30 10:28:44;;;;;;;25.30;12.75;;;11.60;99.90;;;;;;5039019;28;20409;-74
2021/12/30 10:31:12;;;;;;;25.15;13.77;;;11.60;99.90;;;;;;5070380;28;20480;-75
2021/12/30 10:33:49;;;;;;;22.52;11.52;;;11.60;99.90;;;;;;5053647;28;20405;-75
2021/12/30 10:36:17;;;;;;;23.38;11.82;;;11.60;99.90;;;;;;5070570;28;20433;-74
2021/12/30 10:38:43;;;;;;;22.52;11.88;;;11.60;99.90;;;;;;5070828;28;20418;-74
2021/12/30 10:41:08;;;;;;;25.48;12.88;;;11.70;99.90;;;;;;5053360;28;20479;-74
2021/12/30 10:43:53;;;;;;;27.97;12.73;;;11.60;99.90;;;;;;5070764;28;20768;-75
2021/12/30 10:46:26;;;;;;;19.10;10.20;;;11.60;99.90;;;;;;5069735;28;20491;-75
2021/12/30 10:48:57;;;;;;;22.63;11.60;;;11.70;99.90;;;;;;5050736;28;20414;-75
2021/12/30 10:51:33;;;;;;;31.83;13.17;;;11.70;99.90;;;;;;5050303;28;20412;-75
2021/12/30 10:54:08;;;;;;;22.80;9.63;;;11.70;99.90;;;;;;5050142;28;20466;-75
2021/12/30 10:56:36;;;;;;;26.55;11.40;;;11.70;99.90;;;;;;5047341;28;20496;-75
2021/12/30 10:59:23;;;;;;;20.33;9.50;;;11.70;99.90;;;;;;5066747;28;20465;-75
2021/12/30 11:02:04;;;;;;;21.77;8.85;;;11.80;99.90;;;;;;5066389;28;20925;-75
2021/12/30 11:05:00;;;;;;;23.92;9.98;;;11.70;99.90;;;;;;5050021;28;20496;-74
2021/12/30 11:07:51;;;;;;;23.50;8.77;;;11.70;99.90;;;;;;5069591;28;20485;-77
2021/12/30 11:10:35;;;;;;;21.42;9.52;;;11.70;99.90;;;;;;5068319;28;20422;-75
2021/12/30 11:13:12;;;;;;;23.17;9.60;;;11.80;99.90;;;;;;5066717;28;20423;-75
2021/12/30 11:15:38;;;;;;;26.17;9.40;;;11.70;99.90;;;;;;5065765;28;20455;-75
2021/12/30 11:18:12;;;;;;;23.00;10.30;;;11.70;99.90;;;;;;5066278;28;20476;-75
2021/12/30 11:20:46;;;;;;;25.80;10.73;;;11.70;99.90;;;;;;5050026;28;20427;-75
2021/12/30 11:23:14;;;;;;;23.45;11.10;;;11.70;99.90;;;;;;5065652;28;20440;-75
2021/12/30 11:25:39;;;;;;;23.00;9.13;;;11.70;99.90;;;;;;5066042;28;20415;-76
2021/12/30 11:28:05;;;;;;;25.98;9.20;;;11.70;99.90;;;;;;5066560;28;20396;-76
2021/12/30 11:30:31;;;;;;;24.17;8.90;;;11.70;99.90;;;;;;5049321;28;20506;-76
2021/12/30 11:32:57;;;;;;;26.05;8.82;;;11.70;99.90;;;;;;5066152;28;20506;-76
2021/12/30 11:35:26;;;;;;;27.98;9.07;;;11.80;99.90;;;;;;5062347;28;21052;-76
2021/12/30 11:37:52;;;;;;;27.45;9.43;;;11.80;99.90;;;;;;5067726;28;20433;-76
2021/12/30 11:40:21;;;;;;;28.50;9.05;;;11.80;99.90;;;;;;5051065;28;20410;-76
2021/12/30 11:42:49;;;;;;;33.15;9.40;;;11.80;99.90;;;;;;5067662;28;20495;-76
2021/12/30 11:45:41;;;;;;;31.67;9.63;;;11.80;99.90;;;;;;5085980;28;20406;-76
2021/12/30 11:48:28;;;;;;;35.53;9.90;;;11.80;99.90;;;;;;5086156;28;20410;-75
2021/12/30 11:51:06;;;;;;;39.72;11.55;;;11.80;99.90;;;;;;5052690;28;20401;-76
2021/12/30 11:53:31;;;;;;;42.72;12.27;;;11.80;99.90;;;;;;5087071;28;20467;-77
2021/12/30 11:56:19;;;;;;;35.22;10.77;;;11.80;99.90;;;;;;5048531;28;20404;-76
2021/12/30 11:58:52;;;;;;;39.23;11.50;;;11.80;99.90;;;;;;5067653;28;20419;-76
2021/12/30 12:01:21;;;;;;;33.22;10.43;;;11.80;99.90;;;;;;5071289;28;20424;-77
2021/12/30 12:03:53;;;;;;;33.80;11.20;;;11.80;99.90;;;;;;5051377;28;20768;-77
2021/12/30 12:06:24;;;;;;;36.70;12.73;;;11.80;99.90;;;;;;5063238;28;20995;-77
2021/12/30 12:09:32;;;;;;;39.40;13.40;;;11.70;99.90;;;;;;5067762;28;20497;-77
2021/12/30 12:11:59;;;;;;;43.45;14.68;;;11.80;99.90;;;;;;5067712;28;20413;-77
2021/12/30 12:14:28;;;;;;;51.30;16.42;;;11.70;99.90;;;;;;5067853;28;20414;-77
2021/12/30 12:17:01;;;;;;;50.83;15.57;;;11.70;99.90;;;;;;5068105;28;20470;-77
2021/12/30 12:19:35;;;;;;;52.28;15.63;;;11.70;99.90;;;;;;5068290;28;20417;-76
2021/12/30 12:22:04;;;;;;;50.97;15.60;;;11.70;99.90;;;;;;5068632;28;20967;-76
2021/12/30 12:24:36;;;;;;;55.80;15.85;;;11.70;99.90;;;;;;5052106;28;20802;-77
2021/12/30 12:27:09;;;;;;;51.67;14.82;;;11.80;99.90;;;;;;5068833;28;20414;-77
2021/12/30 12:29:49;;;;;;;48.30;12.85;;;11.70;99.90;;;;;;5057820;28;20773;-77
2021/12/30 12:32:34;;;;;;;47.60;13.18;;;11.70;99.90;;;;;;5051518;28;20419;-77
2021/12/30 12:35:03;;;;;;;51.83;13.93;;;11.70;99.90;;;;;;5070825;28;20501;-77